Schuyler, Virginia
Current Conditions -  °F | °C
As of 11:15 AM on Monday 22 Dec 2014 (Local Time) from KW13 Reporting Station
Overcast Overcast  
Wind Chill: 32°   Ceiling: 500
Heat Index: 32°   Visibility: 2.5mi
Dew Point: 30°   Wind: 0mph
Humidity: 94%   Direction: NA
Pressure: 30.19"   Gusts: NA
Location:  37.79°N, 78.7°W
Report Text: KW13 221615Z AUTO 00000KT 2 1/2SM OVC005 00/M01 A3019 RMK AO1 P0001 T10021010
Loading
Personal Weather Stations






























Interactive Weather Map New forecast layout! Learn more

10-Day Weather Forecast

Advertisements
Track Severe Weather on mobile